sensor_id;sensor_type;location;lat;lon;timestamp;pressure;altitude;pressure_sealevel;temperature;humidity
69911;BME280;63555;49.920;17.868;2023-05-25T00:04:08;99231.63;;;6.75;84.20
69911;BME280;63555;49.920;17.868;2023-05-25T00:09:09;99232.72;;;6.70;83.96
69911;BME280;63555;49.920;17.868;2023-05-25T00:14:09;99227.78;;;6.64;83.88
69911;BME280;63555;49.920;17.868;2023-05-25T00:19:10;99234.97;;;6.61;84.00
69911;BME280;63555;49.920;17.868;2023-05-25T00:24:10;99227.56;;;6.52;84.60
69911;BME280;63555;49.920;17.868;2023-05-25T00:29:10;99228.81;;;6.45;85.19
69911;BME280;63555;49.920;17.868;2023-05-25T00:34:11;99232.53;;;6.41;85.68
69911;BME280;63555;49.920;17.868;2023-05-25T00:39:12;99230.28;;;6.33;85.54
69911;BME280;63555;49.920;17.868;2023-05-25T00:44:13;99250.63;;;6.28;84.91
69911;BME280;63555;49.920;17.868;2023-05-25T00:49:16;99250.09;;;6.21;85.33
69911;BME280;63555;49.920;17.868;2023-05-25T00:54:17;99247.63;;;6.18;85.77
69911;BME280;63555;49.920;17.868;2023-05-25T00:59:30;99246.00;;;6.16;84.62
69911;BME280;63555;49.920;17.868;2023-05-25T01:04:38;99244.63;;;6.09;84.97
69911;BME280;63555;49.920;17.868;2023-05-25T01:09:40;99250.13;;;6.02;85.69
69911;BME280;63555;49.920;17.868;2023-05-25T01:14:42;99247.97;;;5.93;85.74
69911;BME280;63555;49.920;17.868;2023-05-25T01:19:42;99255.53;;;5.99;86.54
69911;BME280;63555;49.920;17.868;2023-05-25T01:24:55;99254.94;;;6.12;86.90
69911;BME280;63555;49.920;17.868;2023-05-25T01:30:01;99255.63;;;6.32;88.32
69911;BME280;63555;49.920;17.868;2023-05-25T01:35:03;99255.94;;;6.61;87.88
69911;BME280;63555;49.920;17.868;2023-05-25T01:40:04;99248.41;;;6.88;88.26
69911;BME280;63555;49.920;17.868;2023-05-25T01:45:06;99252.97;;;7.17;88.29
69911;BME280;63555;49.920;17.868;2023-05-25T01:50:17;99250.94;;;7.38;88.49
69911;BME280;63555;49.920;17.868;2023-05-25T01:55:24;99256.88;;;7.57;88.10
69911;BME280;63555;49.920;17.868;2023-05-25T02:00:27;99255.19;;;7.72;87.86
69911;BME280;63555;49.920;17.868;2023-05-25T02:05:30;99260.63;;;7.85;87.34
69911;BME280;63555;49.920;17.868;2023-05-25T02:10:31;99251.00;;;7.99;87.80
69911;BME280;63555;49.920;17.868;2023-05-25T02:15:32;99255.66;;;8.10;87.06
69911;BME280;63555;49.920;17.868;2023-05-25T02:20:35;99259.88;;;8.13;86.96
69911;BME280;63555;49.920;17.868;2023-05-25T02:25:35;99257.66;;;8.21;86.80
69911;BME280;63555;49.920;17.868;2023-05-25T02:30:36;99249.50;;;8.25;87.30
69911;BME280;63555;49.920;17.868;2023-05-25T02:35:36;99253.47;;;8.32;86.88
69911;BME280;63555;49.920;17.868;2023-05-25T02:40:37;99250.78;;;8.34;87.19
69911;BME280;63555;49.920;17.868;2023-05-25T02:45:37;99244.22;;;8.41;87.48
69911;BME280;63555;49.920;17.868;2023-05-25T02:50:38;99254.94;;;8.52;87.44
69911;BME280;63555;49.920;17.868;2023-05-25T02:55:38;99255.44;;;8.59;87.07
69911;BME280;63555;49.920;17.868;2023-05-25T03:00:39;99256.59;;;8.69;87.35
69911;BME280;63555;49.920;17.868;2023-05-25T03:05:41;99255.13;;;8.79;87.20
69911;BME280;63555;49.920;17.868;2023-05-25T03:10:42;99257.19;;;8.88;87.20
69911;BME280;63555;49.920;17.868;2023-05-25T03:15:42;99266.88;;;9.02;87.24
69911;BME280;63555;49.920;17.868;2023-05-25T03:20:42;99276.63;;;9.14;87.01
69911;BME280;63555;49.920;17.868;2023-05-25T03:25:44;99278.59;;;9.25;87.22
69911;BME280;63555;49.920;17.868;2023-05-25T03:30:45;99288.38;;;9.37;87.08
69911;BME280;63555;49.920;17.868;2023-05-25T03:35:45;99279.78;;;9.48;87.04
69911;BME280;63555;49.920;17.868;2023-05-25T03:40:46;99291.66;;;9.55;86.79
69911;BME280;63555;49.920;17.868;2023-05-25T03:45:46;99290.34;;;9.62;86.81
69911;BME280;63555;49.920;17.868;2023-05-25T03:50:46;99303.03;;;9.70;86.64
69911;BME280;63555;49.920;17.868;2023-05-25T03:55:47;99305.16;;;9.77;86.69
69911;BME280;63555;49.920;17.868;2023-05-25T04:00:51;99302.13;;;9.83;86.65
69911;BME280;63555;49.920;17.868;2023-05-25T04:05:51;99303.97;;;9.96;86.85
69911;BME280;63555;49.920;17.868;2023-05-25T04:10:52;99298.75;;;10.08;86.55
69911;BME280;63555;49.920;17.868;2023-05-25T04:15:53;99294.59;;;10.18;86.07
69911;BME280;63555;49.920;17.868;2023-05-25T04:20:53;99301.72;;;10.31;86.01
69911;BME280;63555;49.920;17.868;2023-05-25T04:25:55;99306.31;;;10.41;86.07
69911;BME280;63555;49.920;17.868;2023-05-25T04:30:56;99305.69;;;10.50;85.72
69911;BME280;63555;49.920;17.868;2023-05-25T04:35:57;99306.03;;;10.59;85.57
69911;BME280;63555;49.920;17.868;2023-05-25T04:40:58;99302.88;;;10.66;85.70
69911;BME280;63555;49.920;17.868;2023-05-25T04:46:01;99308.72;;;10.84;85.51
69911;BME280;63555;49.920;17.868;2023-05-25T04:51:01;99313.25;;;10.95;84.53
69911;BME280;63555;49.920;17.868;2023-05-25T04:56:03;99321.16;;;11.07;84.61
69911;BME280;63555;49.920;17.868;2023-05-25T05:01:03;99327.59;;;11.16;84.22
69911;BME280;63555;49.920;17.868;2023-05-25T05:06:04;99329.94;;;11.21;84.52
69911;BME280;63555;49.920;17.868;2023-05-25T05:11:04;99333.97;;;11.39;83.90
69911;BME280;63555;49.920;17.868;2023-05-25T05:16:05;99335.53;;;11.54;83.54
69911;BME280;63555;49.920;17.868;2023-05-25T05:21:05;99343.84;;;11.73;83.35
69911;BME280;63555;49.920;17.868;2023-05-25T05:26:06;99349.47;;;11.82;82.61
69911;BME280;63555;49.920;17.868;2023-05-25T05:31:10;99356.44;;;11.83;81.92
69911;BME280;63555;49.920;17.868;2023-05-25T05:36:11;99354.94;;;11.91;82.32
69911;BME280;63555;49.920;17.868;2023-05-25T05:41:12;99358.81;;;11.98;81.86
69911;BME280;63555;49.920;17.868;2023-05-25T05:46:13;99355.84;;;12.16;81.82
69911;BME280;63555;49.920;17.868;2023-05-25T05:51:13;99363.78;;;12.39;81.05
69911;BME280;63555;49.920;17.868;2023-05-25T05:56:17;99372.63;;;12.51;80.11
69911;BME280;63555;49.920;17.868;2023-05-25T06:01:18;99370.19;;;12.48;79.88
69911;BME280;63555;49.920;17.868;2023-05-25T06:06:18;99371.09;;;12.36;79.26
69911;BME280;63555;49.920;17.868;2023-05-25T06:11:19;99383.91;;;12.29;79.57
69911;BME280;63555;49.920;17.868;2023-05-25T06:16:19;99384.72;;;12.42;79.51
69911;BME280;63555;49.920;17.868;2023-05-25T06:21:20;99391.88;;;12.53;79.29
69911;BME280;63555;49.920;17.868;2023-05-25T06:26:20;99399.19;;;12.50;78.30
69911;BME280;63555;49.920;17.868;2023-05-25T06:31:21;99400.47;;;12.44;78.58
69911;BME280;63555;49.920;17.868;2023-05-25T06:36:21;99398.72;;;12.32;78.24
69911;BME280;63555;49.920;17.868;2023-05-25T06:41:21;99399.50;;;12.21;78.94
69911;BME280;63555;49.920;17.868;2023-05-25T06:46:22;99406.59;;;12.21;78.66
69911;BME280;63555;49.920;17.868;2023-05-25T06:51:22;99410.06;;;12.21;79.16
69911;BME280;63555;49.920;17.868;2023-05-25T06:56:23;99409.00;;;12.24;78.65
69911;BME280;63555;49.920;17.868;2023-05-25T07:01:23;99414.19;;;12.12;78.57
69911;BME280;63555;49.920;17.868;2023-05-25T07:06:24;99415.59;;;12.05;78.64
69911;BME280;63555;49.920;17.868;2023-05-25T07:11:25;99409.78;;;12.00;79.18
69911;BME280;63555;49.920;17.868;2023-05-25T07:16:25;99423.44;;;11.94;78.84
69911;BME280;63555;49.920;17.868;2023-05-25T07:21:26;99417.00;;;11.86;79.04
69911;BME280;63555;49.920;17.868;2023-05-25T07:26:26;99431.34;;;11.94;79.54
69911;BME280;63555;49.920;17.868;2023-05-25T07:31:27;99426.91;;;12.07;78.88
69911;BME280;63555;49.920;17.868;2023-05-25T07:36:27;99442.31;;;12.13;78.69
69911;BME280;63555;49.920;17.868;2023-05-25T07:41:27;99425.94;;;12.21;78.56
69911;BME280;63555;49.920;17.868;2023-05-25T07:46:28;99426.38;;;12.52;78.86
69911;BME280;63555;49.920;17.868;2023-05-25T07:51:29;99411.34;;;13.46;77.85
69911;BME280;63555;49.920;17.868;2023-05-25T07:56:31;99412.53;;;14.54;75.78
69911;BME280;63555;49.920;17.868;2023-05-25T08:01:32;99400.22;;;15.38;73.29
69911;BME280;63555;49.920;17.868;2023-05-25T08:06:32;99406.69;;;15.86;72.44
69911;BME280;63555;49.920;17.868;2023-05-25T08:11:33;99416.97;;;16.01;71.28
69911;BME280;63555;49.920;17.868;2023-05-25T08:16:33;99418.34;;;15.65;71.06
69911;BME280;63555;49.920;17.868;2023-05-25T08:21:33;99420.69;;;15.47;71.79
69911;BME280;63555;49.920;17.868;2023-05-25T08:26:36;99406.19;;;15.30;71.37
69911;BME280;63555;49.920;17.868;2023-05-25T08:31:37;99399.13;;;15.40;71.45
69911;BME280;63555;49.920;17.868;2023-05-25T08:36:37;99401.81;;;15.61;70.45
69911;BME280;63555;49.920;17.868;2023-05-25T08:41:44;99402.94;;;15.47;70.05
69911;BME280;63555;49.920;17.868;2023-05-25T08:46:46;99402.47;;;15.42;70.18
69911;BME280;63555;49.920;17.868;2023-05-25T08:51:52;99400.47;;;15.35;69.85
69911;BME280;63555;49.920;17.868;2023-05-25T08:56:57;99402.28;;;15.34;69.87
69911;BME280;63555;49.920;17.868;2023-05-25T09:07:21;99404.09;;;15.54;69.52
69911;BME280;63555;49.920;17.868;2023-05-25T09:12:22;99411.66;;;15.70;69.15
69911;BME280;63555;49.920;17.868;2023-05-25T09:17:23;99407.53;;;15.87;68.31
69911;BME280;63555;49.920;17.868;2023-05-25T09:22:23;99405.03;;;15.95;68.55
69911;BME280;63555;49.920;17.868;2023-05-25T09:27:24;99405.13;;;16.24;67.86
69911;BME280;63555;49.920;17.868;2023-05-25T09:32:24;99412.00;;;16.27;67.45
69911;BME280;63555;49.920;17.868;2023-05-25T09:37:25;99415.09;;;16.32;67.32
69911;BME280;63555;49.920;17.868;2023-05-25T09:42:26;99410.31;;;16.25;67.57
69911;BME280;63555;49.920;17.868;2023-05-25T09:47:27;99417.84;;;16.11;67.41
69911;BME280;63555;49.920;17.868;2023-05-25T09:52:27;99418.03;;;15.88;67.78
69911;BME280;63555;49.920;17.868;2023-05-25T09:57:28;99410.31;;;15.85;68.02
69911;BME280;63555;49.920;17.868;2023-05-25T10:02:28;99409.19;;;16.18;67.84
69911;BME280;63555;49.920;17.868;2023-05-25T10:07:29;99406.06;;;16.53;66.93
69911;BME280;63555;49.920;17.868;2023-05-25T10:12:31;99399.53;;;16.86;66.70
69911;BME280;63555;49.920;17.868;2023-05-25T10:17:34;99403.72;;;17.18;65.84
69911;BME280;63555;49.920;17.868;2023-05-25T10:22:39;99406.09;;;17.31;65.20
69911;BME280;63555;49.920;17.868;2023-05-25T10:27:47;99400.34;;;17.35;65.20
69911;BME280;63555;49.920;17.868;2023-05-25T10:32:51;99397.34;;;17.58;64.95
69911;BME280;63555;49.920;17.868;2023-05-25T10:37:52;99396.84;;;17.91;64.16
69911;BME280;63555;49.920;17.868;2023-05-25T10:42:53;99399.41;;;17.83;64.28
69911;BME280;63555;49.920;17.868;2023-05-25T10:47:53;99400.78;;;17.87;64.48
69911;BME280;63555;49.920;17.868;2023-05-25T10:53:06;99397.44;;;18.12;63.44
69911;BME280;63555;49.920;17.868;2023-05-25T10:58:07;99393.63;;;18.15;63.72
69911;BME280;63555;49.920;17.868;2023-05-25T11:03:09;99387.53;;;18.32;63.08
69911;BME280;63555;49.920;17.868;2023-05-25T11:08:09;99378.44;;;18.25;63.12
69911;BME280;63555;49.920;17.868;2023-05-25T11:13:36;99384.72;;;18.52;62.94
69911;BME280;63555;49.920;17.868;2023-05-25T11:18:40;99375.59;;;19.07;62.04
69911;BME280;63555;49.920;17.868;2023-05-25T11:24:12;99368.75;;;19.83;59.81
69911;BME280;63555;49.920;17.868;2023-05-25T11:29:14;99364.69;;;20.47;59.57
69911;BME280;63555;49.920;17.868;2023-05-25T11:34:15;99365.25;;;21.48;58.19
69911;BME280;63555;49.920;17.868;2023-05-25T11:39:15;99351.19;;;23.55;54.53
69911;BME280;63555;49.920;17.868;2023-05-25T11:44:24;99343.91;;;25.07;51.35
69911;BME280;63555;49.920;17.868;2023-05-25T11:49:26;99337.25;;;27.03;47.78
69911;BME280;63555;49.920;17.868;2023-05-25T11:54:28;99327.66;;;27.26;45.74
69911;BME280;63555;49.920;17.868;2023-05-25T11:59:28;99331.50;;;26.03;46.77
69911;BME280;63555;49.920;17.868;2023-05-25T12:04:30;99341.25;;;25.14;48.18
69911;BME280;63555;49.920;17.868;2023-05-25T12:09:32;99344.19;;;24.34;48.91
69911;BME280;63555;49.920;17.868;2023-05-25T12:14:32;99330.84;;;23.29;50.57
69911;BME280;63555;49.920;17.868;2023-05-25T12:19:35;99331.66;;;23.52;50.61
69911;BME280;63555;49.920;17.868;2023-05-25T12:24:36;99311.50;;;22.96;50.29
69911;BME280;63555;49.920;17.868;2023-05-25T12:29:45;99309.09;;;23.01;50.73
69911;BME280;63555;49.920;17.868;2023-05-25T12:34:45;99311.63;;;23.17;50.03
69911;BME280;63555;49.920;17.868;2023-05-25T12:39:46;99305.97;;;23.12;49.84
69911;BME280;63555;49.920;17.868;2023-05-25T12:44:53;99302.53;;;23.56;49.67
69911;BME280;63555;49.920;17.868;2023-05-25T13:00:22;99287.16;;;25.22;46.22
69911;BME280;63555;49.920;17.868;2023-05-25T13:05:25;99292.31;;;24.74;47.27
69911;BME280;63555;49.920;17.868;2023-05-25T13:10:27;99302.16;;;24.39;47.45
69911;BME280;63555;49.920;17.868;2023-05-25T13:15:28;99291.25;;;23.82;49.15
69911;BME280;63555;49.920;17.868;2023-05-25T13:20:28;99290.44;;;23.67;49.20
69911;BME280;63555;49.920;17.868;2023-05-25T13:25:29;99283.31;;;23.22;49.04
69911;BME280;63555;49.920;17.868;2023-05-25T13:30:29;99296.81;;;22.30;51.03
69911;BME280;63555;49.920;17.868;2023-05-25T13:35:30;99289.22;;;22.87;50.98
69911;BME280;63555;49.920;17.868;2023-05-25T13:40:40;99291.50;;;23.28;49.43
69911;BME280;63555;49.920;17.868;2023-05-25T13:45:40;99290.06;;;22.34;51.06
69911;BME280;63555;49.920;17.868;2023-05-25T13:50:41;99287.22;;;22.05;52.19
69911;BME280;63555;49.920;17.868;2023-05-25T13:55:43;99280.75;;;22.45;50.98
69911;BME280;63555;49.920;17.868;2023-05-25T14:00:44;99286.34;;;21.73;52.23
69911;BME280;63555;49.920;17.868;2023-05-25T14:05:44;99294.03;;;21.05;53.24
69911;BME280;63555;49.920;17.868;2023-05-25T14:10:44;99294.84;;;20.48;54.93
69911;BME280;63555;49.920;17.868;2023-05-25T14:15:45;99297.56;;;19.98;55.75
69911;BME280;63555;49.920;17.868;2023-05-25T14:20:46;99295.47;;;19.50;57.43
69911;BME280;63555;49.920;17.868;2023-05-25T14:25:46;99290.53;;;19.55;56.95
69911;BME280;63555;49.920;17.868;2023-05-25T14:30:47;99278.94;;;19.88;56.51
69911;BME280;63555;49.920;17.868;2023-05-25T14:35:48;99284.25;;;20.30;55.48
69911;BME280;63555;49.920;17.868;2023-05-25T14:40:48;99271.75;;;20.47;55.77
69911;BME280;63555;49.920;17.868;2023-05-25T14:45:49;99273.25;;;20.42;55.70
69911;BME280;63555;49.920;17.868;2023-05-25T14:50:49;99265.97;;;20.10;56.30
69911;BME280;63555;49.920;17.868;2023-05-25T14:55:50;99269.66;;;19.66;57.32
69911;BME280;63555;49.920;17.868;2023-05-25T15:00:50;99260.41;;;19.95;57.29
69911;BME280;63555;49.920;17.868;2023-05-25T15:05:51;99257.75;;;20.03;56.85
69911;BME280;63555;49.920;17.868;2023-05-25T15:10:51;99263.75;;;19.55;57.60
69911;BME280;63555;49.920;17.868;2023-05-25T15:15:52;99256.56;;;18.77;59.31
69911;BME280;63555;49.920;17.868;2023-05-25T15:20:55;99256.44;;;18.43;60.17
69911;BME280;63555;49.920;17.868;2023-05-25T15:25:57;99254.31;;;18.29;60.61
69911;BME280;63555;49.920;17.868;2023-05-25T15:31:02;99257.03;;;18.02;60.93
69911;BME280;63555;49.920;17.868;2023-05-25T15:36:02;99257.22;;;17.63;61.90
69911;BME280;63555;49.920;17.868;2023-05-25T15:41:03;99264.59;;;17.51;62.22
69911;BME280;63555;49.920;17.868;2023-05-25T15:46:03;99269.72;;;17.35;62.60
69911;BME280;63555;49.920;17.868;2023-05-25T15:51:04;99273.84;;;17.10;63.17
69911;BME280;63555;49.920;17.868;2023-05-25T15:56:04;99281.44;;;16.96;63.80
69911;BME280;63555;49.920;17.868;2023-05-25T16:01:06;99271.13;;;16.73;64.14
69911;BME280;63555;49.920;17.868;2023-05-25T16:06:06;99278.13;;;16.55;64.56
69911;BME280;63555;49.920;17.868;2023-05-25T16:11:08;99277.81;;;16.39;65.17
69911;BME280;63555;49.920;17.868;2023-05-25T16:16:08;99283.69;;;16.23;65.36
69911;BME280;63555;49.920;17.868;2023-05-25T16:21:09;99277.94;;;16.18;65.76
69911;BME280;63555;49.920;17.868;2023-05-25T16:26:09;99272.19;;;16.13;66.09
69911;BME280;63555;49.920;17.868;2023-05-25T16:31:12;99275.81;;;16.02;66.36
69911;BME280;63555;49.920;17.868;2023-05-25T16:36:14;99276.78;;;15.91;66.68
69911;BME280;63555;49.920;17.868;2023-05-25T16:41:15;99278.44;;;15.83;66.79
69911;BME280;63555;49.920;17.868;2023-05-25T16:46:16;99276.75;;;15.72;67.09
69911;BME280;63555;49.920;17.868;2023-05-25T16:51:16;99277.31;;;15.76;67.34
69911;BME280;63555;49.920;17.868;2023-05-25T16:56:17;99273.13;;;15.73;67.33
69911;BME280;63555;49.920;17.868;2023-05-25T17:01:19;99266.78;;;15.65;67.56
69911;BME280;63555;49.920;17.868;2023-05-25T17:06:19;99269.06;;;15.48;68.03
69911;BME280;63555;49.920;17.868;2023-05-25T17:11:20;99264.97;;;15.44;68.16
69911;BME280;63555;49.920;17.868;2023-05-25T17:16:25;99266.94;;;15.42;68.18
69911;BME280;63555;49.920;17.868;2023-05-25T17:21:25;99270.25;;;15.35;68.47
69911;BME280;63555;49.920;17.868;2023-05-25T17:26:26;99266.84;;;15.23;68.54
69911;BME280;63555;49.920;17.868;2023-05-25T17:31:26;99263.31;;;15.13;69.07
69911;BME280;63555;49.920;17.868;2023-05-25T17:36:27;99265.09;;;15.03;69.40
69911;BME280;63555;49.920;17.868;2023-05-25T17:41:27;99268.06;;;14.88;69.72
69911;BME280;63555;49.920;17.868;2023-05-25T17:46:28;99276.13;;;14.77;69.96
69911;BME280;63555;49.920;17.868;2023-05-25T17:51:28;99276.16;;;14.66;70.22
69911;BME280;63555;49.920;17.868;2023-05-25T17:56:29;99276.91;;;14.57;70.53
69911;BME280;63555;49.920;17.868;2023-05-25T18:01:30;99276.84;;;14.47;70.55
69911;BME280;63555;49.920;17.868;2023-05-25T18:06:30;99278.84;;;14.23;70.78
69911;BME280;63555;49.920;17.868;2023-05-25T18:11:30;99296.56;;;13.90;71.15
69911;BME280;63555;49.920;17.868;2023-05-25T18:16:32;99301.75;;;13.58;71.69
69911;BME280;63555;49.920;17.868;2023-05-25T18:21:38;99302.13;;;13.31;72.30
69911;BME280;63555;49.920;17.868;2023-05-25T18:26:39;99310.25;;;13.06;72.60
69911;BME280;63555;49.920;17.868;2023-05-25T18:31:41;99310.06;;;12.85;72.99
69911;BME280;63555;49.920;17.868;2023-05-25T18:36:45;99310.03;;;12.74;73.55
69911;BME280;63555;49.920;17.868;2023-05-25T18:41:45;99319.03;;;12.71;73.91
69911;BME280;63555;49.920;17.868;2023-05-25T18:46:46;99310.88;;;12.74;74.39
69911;BME280;63555;49.920;17.868;2023-05-25T18:51:50;99303.44;;;12.80;74.27
69911;BME280;63555;49.920;17.868;2023-05-25T18:56:50;99307.75;;;12.81;74.13
69911;BME280;63555;49.920;17.868;2023-05-25T19:01:51;99313.50;;;12.63;73.85
69911;BME280;63555;49.920;17.868;2023-05-25T19:06:51;99323.59;;;12.34;74.32
69911;BME280;63555;49.920;17.868;2023-05-25T19:11:52;99328.97;;;12.09;75.50
69911;BME280;63555;49.920;17.868;2023-05-25T19:16:52;99330.16;;;12.05;76.18
69911;BME280;63555;49.920;17.868;2023-05-25T19:21:52;99330.44;;;12.13;76.41
69911;BME280;63555;49.920;17.868;2023-05-25T19:26:53;99320.78;;;12.25;76.49
69911;BME280;63555;49.920;17.868;2023-05-25T19:31:53;99325.91;;;12.39;76.58
69911;BME280;63555;49.920;17.868;2023-05-25T19:36:54;99326.91;;;12.49;76.18
69911;BME280;63555;49.920;17.868;2023-05-25T19:41:54;99328.25;;;12.55;76.49
69911;BME280;63555;49.920;17.868;2023-05-25T19:46:55;99327.06;;;12.59;76.38
69911;BME280;63555;49.920;17.868;2023-05-25T19:51:55;99327.91;;;12.59;76.52
69911;BME280;63555;49.920;17.868;2023-05-25T19:56:57;99324.16;;;12.51;76.58
69911;BME280;63555;49.920;17.868;2023-05-25T20:01:57;99326.53;;;12.42;77.03
69911;BME280;63555;49.920;17.868;2023-05-25T20:06:58;99327.47;;;12.41;77.05
69911;BME280;63555;49.920;17.868;2023-05-25T20:11:58;99329.16;;;12.42;77.33
69911;BME280;63555;49.920;17.868;2023-05-25T20:16:59;99320.38;;;12.42;77.29
69911;BME280;63555;49.920;17.868;2023-05-25T20:21:59;99322.41;;;12.38;77.49
69911;BME280;63555;49.920;17.868;2023-05-25T20:27:02;99316.75;;;12.32;77.76
69911;BME280;63555;49.920;17.868;2023-05-25T20:32:02;99322.81;;;12.21;77.58
69911;BME280;63555;49.920;17.868;2023-05-25T20:37:03;99318.09;;;12.01;77.32
69911;BME280;63555;49.920;17.868;2023-05-25T20:42:04;99307.06;;;11.70;78.31
69911;BME280;63555;49.920;17.868;2023-05-25T20:47:05;99312.50;;;11.56;79.00
69911;BME280;63555;49.920;17.868;2023-05-25T20:52:06;99309.22;;;11.53;79.40
69911;BME280;63555;49.920;17.868;2023-05-25T20:57:06;99307.09;;;11.58;79.12
69911;BME280;63555;49.920;17.868;2023-05-25T21:02:07;99305.81;;;11.63;79.66
69911;BME280;63555;49.920;17.868;2023-05-25T21:07:07;99302.63;;;11.71;79.66
69911;BME280;63555;49.920;17.868;2023-05-25T21:12:08;99305.78;;;11.76;79.82
69911;BME280;63555;49.920;17.868;2023-05-25T21:17:08;99314.56;;;11.76;79.54
69911;BME280;63555;49.920;17.868;2023-05-25T21:22:08;99310.03;;;11.78;80.10
69911;BME280;63555;49.920;17.868;2023-05-25T21:27:10;99310.34;;;11.87;80.20
69911;BME280;63555;49.920;17.868;2023-05-25T21:32:10;99319.41;;;11.95;80.37
69911;BME280;63555;49.920;17.868;2023-05-25T21:37:11;99315.03;;;12.07;79.90
69911;BME280;63555;49.920;17.868;2023-05-25T21:42:11;99329.28;;;12.17;79.95
69911;BME280;63555;49.920;17.868;2023-05-25T21:47:12;99320.78;;;12.25;79.92
69911;BME280;63555;49.920;17.868;2023-05-25T21:52:12;99327.31;;;12.32;79.88
69911;BME280;63555;49.920;17.868;2023-05-25T21:57:12;99327.72;;;12.38;80.08
69911;BME280;63555;49.920;17.868;2023-05-25T22:02:13;99324.00;;;12.41;79.97
69911;BME280;63555;49.920;17.868;2023-05-25T22:07:13;99319.78;;;12.38;79.95
69911;BME280;63555;49.920;17.868;2023-05-25T22:12:13;99318.19;;;12.36;80.11
69911;BME280;63555;49.920;17.868;2023-05-25T22:17:14;99325.19;;;12.37;80.53
69911;BME280;63555;49.920;17.868;2023-05-25T22:22:16;99323.16;;;12.40;80.47
69911;BME280;63555;49.920;17.868;2023-05-25T22:27:16;99322.66;;;12.35;80.47
69911;BME280;63555;49.920;17.868;2023-05-25T22:32:17;99321.41;;;12.28;80.86
69911;BME280;63555;49.920;17.868;2023-05-25T22:37:17;99310.59;;;12.31;80.93
69911;BME280;63555;49.920;17.868;2023-05-25T22:42:18;99315.56;;;12.36;80.91
69911;BME280;63555;49.920;17.868;2023-05-25T22:47:18;99312.19;;;12.34;80.86
69911;BME280;63555;49.920;17.868;2023-05-25T22:52:18;99307.56;;;12.25;81.32
69911;BME280;63555;49.920;17.868;2023-05-25T22:57:19;99307.06;;;12.20;81.38
69911;BME280;63555;49.920;17.868;2023-05-25T23:02:19;99304.53;;;12.18;81.72
69911;BME280;63555;49.920;17.868;2023-05-25T23:07:20;99303.69;;;12.18;81.46
69911;BME280;63555;49.920;17.868;2023-05-25T23:12:20;99296.81;;;12.15;81.45
69911;BME280;63555;49.920;17.868;2023-05-25T23:17:21;99297.66;;;12.16;81.56
69911;BME280;63555;49.920;17.868;2023-05-25T23:22:21;99302.31;;;12.12;81.54
69911;BME280;63555;49.920;17.868;2023-05-25T23:27:21;99293.41;;;12.13;81.46
69911;BME280;63555;49.920;17.868;2023-05-25T23:32:22;99293.00;;;12.19;81.50
69911;BME280;63555;49.920;17.868;2023-05-25T23:37:22;99302.28;;;12.25;81.63
69911;BME280;63555;49.920;17.868;2023-05-25T23:42:22;99299.91;;;12.33;81.77
69911;BME280;63555;49.920;17.868;2023-05-25T23:47:23;99295.00;;;12.39;81.49
69911;BME280;63555;49.920;17.868;2023-05-25T23:52:23;99299.13;;;12.43;81.42
69911;BME280;63555;49.920;17.868;2023-05-25T23:57:24;99303.44;;;12.44;81.90
